sensor_id;sensor_type;location;lat;lon;timestamp;P1;durP1;ratioP1;P2;durP2;ratioP2
10440;SDS011;5268;49.346;9.522;2023-02-19T04:09:30;2.10;;;1.88;;
10440;SDS011;5268;49.346;9.522;2023-02-19T04:14:37;1.80;;;1.70;;
10440;SDS011;5268;49.346;9.522;2023-02-19T04:19:43;2.40;;;1.88;;
10440;SDS011;5268;49.346;9.522;2023-02-19T04:24:51;1.98;;;1.80;;
10440;SDS011;5268;49.346;9.522;2023-02-19T04:29:55;2.75;;;1.65;;
10440;SDS011;5268;49.346;9.522;2023-02-19T04:34:59;1.70;;;1.60;;
10440;SDS011;5268;49.346;9.522;2023-02-19T04:40:22;1.70;;;1.60;;
10440;SDS011;5268;49.346;9.522;2023-02-19T04:45:25;1.50;;;1.40;;
10440;SDS011;5268;49.346;9.522;2023-02-19T04:50:27;1.67;;;1.48;;
10440;SDS011;5268;49.346;9.522;2023-02-19T05:06:20;1.70;;;1.60;;
10440;SDS011;5268;49.346;9.522;2023-02-19T05:11:24;1.90;;;1.80;;
10440;SDS011;5268;49.346;9.522;2023-02-19T05:16:27;2.45;;;2.25;;
10440;SDS011;5268;49.346;9.522;2023-02-19T05:21:31;2.65;;;2.45;;
10440;SDS011;5268;49.346;9.522;2023-02-19T05:26:32;3.55;;;3.25;;
10440;SDS011;5268;49.346;9.522;2023-02-19T05:31:39;3.72;;;3.42;;
10440;SDS011;5268;49.346;9.522;2023-02-19T05:36:42;3.97;;;3.67;;
10440;SDS011;5268;49.346;9.522;2023-02-19T05:41:45;4.82;;;4.43;;
10440;SDS011;5268;49.346;9.522;2023-02-19T05:46:48;4.78;;;4.38;;
10440;SDS011;5268;49.346;9.522;2023-02-19T05:51:54;5.05;;;4.65;;
10440;SDS011;5268;49.346;9.522;2023-02-19T05:56:57;5.35;;;4.90;;
10440;SDS011;5268;49.346;9.522;2023-02-19T06:01:59;4.88;;;4.47;;
10440;SDS011;5268;49.346;9.522;2023-02-19T06:07:03;4.95;;;4.45;;
10440;SDS011;5268;49.346;9.522;2023-02-19T06:12:05;4.57;;;4.15;;
10440;SDS011;5268;49.346;9.522;2023-02-19T06:17:07;4.05;;;3.65;;
10440;SDS011;5268;49.346;9.522;2023-02-19T06:22:12;4.00;;;3.70;;
10440;SDS011;5268;49.346;9.522;2023-02-19T06:27:14;3.75;;;3.45;;
10440;SDS011;5268;49.346;9.522;2023-02-19T06:32:16;3.92;;;3.63;;
10440;SDS011;5268;49.346;9.522;2023-02-19T06:37:20;4.13;;;3.72;;
10440;SDS011;5268;49.346;9.522;2023-02-19T06:42:22;4.10;;;3.70;;
10440;SDS011;5268;49.346;9.522;2023-02-19T06:47:24;3.42;;;3.05;;
10440;SDS011;5268;49.346;9.522;2023-02-19T06:52:27;4.25;;;3.83;;
10440;SDS011;5268;49.346;9.522;2023-02-19T06:57:30;4.05;;;3.33;;
10440;SDS011;5268;49.346;9.522;2023-02-19T07:02:32;4.05;;;3.75;;
10440;SDS011;5268;49.346;9.522;2023-02-19T07:07:35;3.45;;;3.15;;
10440;SDS011;5268;49.346;9.522;2023-02-19T07:12:37;3.60;;;3.30;;
10440;SDS011;5268;49.346;9.522;2023-02-19T07:17:39;7.28;;;6.57;;
10440;SDS011;5268;49.346;9.522;2023-02-19T07:22:42;3.75;;;3.35;;
10440;SDS011;5268;49.346;9.522;2023-02-19T07:27:44;6.63;;;5.53;;
10440;SDS011;5268;49.346;9.522;2023-02-19T07:32:46;4.60;;;4.15;;
10440;SDS011;5268;49.346;9.522;2023-02-19T07:37:50;4.43;;;4.03;;
10440;SDS011;5268;49.346;9.522;2023-02-19T07:42:52;5.13;;;4.63;;
10440;SDS011;5268;49.346;9.522;2023-02-19T07:54:23;5.05;;;4.40;;
10440;SDS011;5268;49.346;9.522;2023-02-19T07:59:40;3.95;;;3.65;;
10440;SDS011;5268;49.346;9.522;2023-02-19T08:04:47;4.07;;;3.72;;
10440;SDS011;5268;49.346;9.522;2023-02-19T08:09:57;4.75;;;4.28;;
10440;SDS011;5268;49.346;9.522;2023-02-19T08:15:15;4.18;;;3.75;;
10440;SDS011;5268;49.346;9.522;2023-02-19T08:20:18;5.13;;;4.03;;
10440;SDS011;5268;49.346;9.522;2023-02-19T08:25:27;4.10;;;3.70;;
10440;SDS011;5268;49.346;9.522;2023-02-19T08:30:34;4.35;;;3.95;;
10440;SDS011;5268;49.346;9.522;2023-02-19T08:35:43;4.00;;;3.65;;
10440;SDS011;5268;49.346;9.522;2023-02-19T08:40:48;3.90;;;3.50;;
10440;SDS011;5268;49.346;9.522;2023-02-19T08:45:51;4.00;;;3.60;;
10440;SDS011;5268;49.346;9.522;2023-02-19T08:50:55;3.70;;;3.40;;
10440;SDS011;5268;49.346;9.522;2023-02-19T08:56:06;4.10;;;3.70;;
10440;SDS011;5268;49.346;9.522;2023-02-19T09:01:12;3.65;;;3.35;;
10440;SDS011;5268;49.346;9.522;2023-02-19T09:06:17;3.70;;;3.40;;
10440;SDS011;5268;49.346;9.522;2023-02-19T09:11:28;3.97;;;3.30;;
10440;SDS011;5268;49.346;9.522;2023-02-19T09:16:32;4.00;;;3.70;;
10440;SDS011;5268;49.346;9.522;2023-02-19T09:21:35;5.00;;;4.50;;
10440;SDS011;5268;49.346;9.522;2023-02-19T09:26:51;5.20;;;3.35;;
10440;SDS011;5268;49.346;9.522;2023-02-19T09:31:55;3.13;;;2.85;;
10440;SDS011;5268;49.346;9.522;2023-02-19T09:36:58;3.88;;;3.10;;
10440;SDS011;5268;49.346;9.522;2023-02-19T09:42:01;2.95;;;2.55;;
10440;SDS011;5268;49.346;9.522;2023-02-19T09:47:13;4.07;;;3.30;;
10440;SDS011;5268;49.346;9.522;2023-02-19T09:52:19;5.05;;;4.60;;
10440;SDS011;5268;49.346;9.522;2023-02-19T09:57:31;3.90;;;3.08;;
10440;SDS011;5268;49.346;9.522;2023-02-19T10:02:35;5.20;;;3.10;;
10440;SDS011;5268;49.346;9.522;2023-02-19T10:07:38;3.25;;;2.75;;
10440;SDS011;5268;49.346;9.522;2023-02-19T10:12:47;3.50;;;3.00;;
10440;SDS011;5268;49.346;9.522;2023-02-19T10:17:52;4.68;;;2.90;;
10440;SDS011;5268;49.346;9.522;2023-02-19T10:22:56;3.42;;;2.60;;
10440;SDS011;5268;49.346;9.522;2023-02-19T10:28:03;3.88;;;2.72;;
10440;SDS011;5268;49.346;9.522;2023-02-19T10:33:08;4.85;;;2.40;;
10440;SDS011;5268;49.346;9.522;2023-02-19T10:38:12;3.58;;;2.30;;
10440;SDS011;5268;49.346;9.522;2023-02-19T10:43:21;5.05;;;2.70;;
10440;SDS011;5268;49.346;9.522;2023-02-19T10:48:33;3.95;;;2.60;;
10440;SDS011;5268;49.346;9.522;2023-02-19T10:53:39;3.58;;;2.83;;
10440;SDS011;5268;49.346;9.522;2023-02-19T10:58:44;4.60;;;2.90;;
10440;SDS011;5268;49.346;9.522;2023-02-19T11:03:47;4.95;;;3.35;;
10440;SDS011;5268;49.346;9.522;2023-02-19T11:08:51;5.47;;;3.90;;
10440;SDS011;5268;49.346;9.522;2023-02-19T11:13:56;3.78;;;2.92;;
10440;SDS011;5268;49.346;9.522;2023-02-19T11:19:00;3.20;;;2.90;;
10440;SDS011;5268;49.346;9.522;2023-02-19T11:24:02;4.05;;;2.70;;
10440;SDS011;5268;49.346;9.522;2023-02-19T11:29:15;3.90;;;2.88;;
10440;SDS011;5268;49.346;9.522;2023-02-19T11:34:26;4.35;;;2.33;;
10440;SDS011;5268;49.346;9.522;2023-02-19T11:39:29;5.45;;;3.38;;
10440;SDS011;5268;49.346;9.522;2023-02-19T11:44:37;4.72;;;2.60;;
10440;SDS011;5268;49.346;9.522;2023-02-19T11:49:52;3.35;;;2.47;;
10440;SDS011;5268;49.346;9.522;2023-02-19T11:55:01;4.45;;;3.35;;
10440;SDS011;5268;49.346;9.522;2023-02-19T12:00:17;3.78;;;2.65;;
10440;SDS011;5268;49.346;9.522;2023-02-19T12:11:34;3.42;;;2.33;;
10440;SDS011;5268;49.346;9.522;2023-02-19T12:17:09;3.75;;;2.20;;
10440;SDS011;5268;49.346;9.522;2023-02-19T12:28:14;3.22;;;2.22;;
10440;SDS011;5268;49.346;9.522;2023-02-19T13:01:55;3.60;;;2.10;;
10440;SDS011;5268;49.346;9.522;2023-02-19T13:07:11;2.55;;;1.90;;
10440;SDS011;5268;49.346;9.522;2023-02-19T13:18:13;3.20;;;1.80;;
10440;SDS011;5268;49.346;9.522;2023-02-19T13:41:34;2.25;;;1.77;;
10440;SDS011;5268;49.346;9.522;2023-02-19T13:46:58;3.17;;;1.90;;
10440;SDS011;5268;49.346;9.522;2023-02-19T14:56:15;3.75;;;2.00;;
10440;SDS011;5268;49.346;9.522;2023-02-19T15:01:49;3.60;;;2.30;;
10440;SDS011;5268;49.346;9.522;2023-02-19T15:12:43;4.72;;;2.60;;
10440;SDS011;5268;49.346;9.522;2023-02-19T15:24:32;2.75;;;2.20;;
10440;SDS011;5268;49.346;9.522;2023-02-19T15:30:23;4.35;;;3.03;;
10440;SDS011;5268;49.346;9.522;2023-02-19T15:35:50;5.20;;;2.60;;
10440;SDS011;5268;49.346;9.522;2023-02-19T15:40:55;4.43;;;2.40;;
10440;SDS011;5268;49.346;9.522;2023-02-19T15:45:58;3.80;;;2.33;;
10440;SDS011;5268;49.346;9.522;2023-02-19T15:51:10;4.60;;;2.20;;
10440;SDS011;5268;49.346;9.522;2023-02-19T15:56:33;4.32;;;2.05;;
10440;SDS011;5268;49.346;9.522;2023-02-19T16:01:45;4.22;;;2.25;;
10440;SDS011;5268;49.346;9.522;2023-02-19T16:23:59;3.95;;;2.10;;
10440;SDS011;5268;49.346;9.522;2023-02-19T16:30:19;5.75;;;2.03;;
10440;SDS011;5268;49.346;9.522;2023-02-19T16:53:00;5.68;;;2.55;;
10440;SDS011;5268;49.346;9.522;2023-02-19T16:58:26;4.20;;;2.05;;
10440;SDS011;5268;49.346;9.522;2023-02-19T17:04:49;3.97;;;2.35;;
10440;SDS011;5268;49.346;9.522;2023-02-19T18:50:18;5.60;;;2.35;;
10440;SDS011;5268;49.346;9.522;2023-02-19T18:55:22;3.83;;;2.22;;
10440;SDS011;5268;49.346;9.522;2023-02-19T19:00:24;5.22;;;2.67;;
10440;SDS011;5268;49.346;9.522;2023-02-19T19:05:28;4.78;;;2.72;;
10440;SDS011;5268;49.346;9.522;2023-02-19T19:10:30;3.83;;;2.97;;
10440;SDS011;5268;49.346;9.522;2023-02-19T19:15:32;5.45;;;2.97;;
10440;SDS011;5268;49.346;9.522;2023-02-19T19:20:36;5.72;;;2.70;;
10440;SDS011;5268;49.346;9.522;2023-02-19T19:25:38;6.93;;;3.15;;
10440;SDS011;5268;49.346;9.522;2023-02-19T19:30:40;6.63;;;3.33;;
10440;SDS011;5268;49.346;9.522;2023-02-19T19:35:44;8.27;;;4.10;;
10440;SDS011;5268;49.346;9.522;2023-02-19T19:40:46;11.77;;;7.30;;
10440;SDS011;5268;49.346;9.522;2023-02-19T19:45:49;8.73;;;4.10;;
10440;SDS011;5268;49.346;9.522;2023-02-19T19:50:52;21.42;;;10.77;;
10440;SDS011;5268;49.346;9.522;2023-02-19T19:55:56;9.98;;;6.70;;
10440;SDS011;5268;49.346;9.522;2023-02-19T20:00:58;14.98;;;8.43;;
10440;SDS011;5268;49.346;9.522;2023-02-19T20:06:02;17.75;;;8.70;;
10440;SDS011;5268;49.346;9.522;2023-02-19T20:11:05;14.30;;;7.95;;
10440;SDS011;5268;49.346;9.522;2023-02-19T20:16:07;26.35;;;14.85;;
10440;SDS011;5268;49.346;9.522;2023-02-19T20:21:12;10.40;;;5.45;;
10440;SDS011;5268;49.346;9.522;2023-02-19T20:26:19;8.80;;;4.72;;
10440;SDS011;5268;49.346;9.522;2023-02-19T20:31:22;9.00;;;5.50;;
10440;SDS011;5268;49.346;9.522;2023-02-19T20:36:26;11.93;;;6.47;;
10440;SDS011;5268;49.346;9.522;2023-02-19T20:41:28;8.20;;;4.60;;
10440;SDS011;5268;49.346;9.522;2023-02-19T20:46:30;7.60;;;4.72;;
10440;SDS011;5268;49.346;9.522;2023-02-19T20:51:40;7.15;;;4.20;;
10440;SDS011;5268;49.346;9.522;2023-02-19T20:56:43;8.88;;;4.38;;
10440;SDS011;5268;49.346;9.522;2023-02-19T21:01:45;8.35;;;4.22;;
10440;SDS011;5268;49.346;9.522;2023-02-19T21:06:49;6.78;;;4.22;;
10440;SDS011;5268;49.346;9.522;2023-02-19T21:11:51;5.68;;;4.10;;
10440;SDS011;5268;49.346;9.522;2023-02-19T21:16:53;5.43;;;3.88;;
10440;SDS011;5268;49.346;9.522;2023-02-19T21:21:57;7.30;;;4.20;;
10440;SDS011;5268;49.346;9.522;2023-02-19T21:26:59;6.47;;;3.80;;
10440;SDS011;5268;49.346;9.522;2023-02-19T21:32:02;7.63;;;4.00;;
10440;SDS011;5268;49.346;9.522;2023-02-19T21:37:06;6.25;;;3.70;;
10440;SDS011;5268;49.346;9.522;2023-02-19T21:42:08;6.38;;;3.83;;
10440;SDS011;5268;49.346;9.522;2023-02-19T21:47:10;6.90;;;3.90;;
10440;SDS011;5268;49.346;9.522;2023-02-19T21:52:14;6.35;;;4.13;;
10440;SDS011;5268;49.346;9.522;2023-02-19T21:57:36;6.20;;;3.70;;
10440;SDS011;5268;49.346;9.522;2023-02-19T22:02:40;7.55;;;3.97;;
10440;SDS011;5268;49.346;9.522;2023-02-19T22:07:45;6.53;;;3.78;;
10440;SDS011;5268;49.346;9.522;2023-02-19T22:12:57;6.40;;;3.40;;
10440;SDS011;5268;49.346;9.522;2023-02-19T22:24:24;5.50;;;3.45;;
10440;SDS011;5268;49.346;9.522;2023-02-19T22:30:38;8.13;;;3.97;;
10440;SDS011;5268;49.346;9.522;2023-02-19T22:41:49;8.05;;;3.95;;
10440;SDS011;5268;49.346;9.522;2023-02-19T22:47:27;6.57;;;3.80;;
10440;SDS011;5268;49.346;9.522;2023-02-19T22:52:44;8.52;;;3.80;;
